createdAt,value
2023-03-08T00:01:14.385Z,96075.44
2023-03-08T00:03:44.124Z,96134.84
2023-03-08T00:06:14.625Z,96135.81
2023-03-08T00:08:43.068Z,96009.78
2023-03-08T00:11:13.777Z,96108.22
2023-03-08T00:13:42.188Z,96134.78
2023-03-08T00:16:13.090Z,96139.78
2023-03-08T00:18:41.835Z,96110.66
2023-03-08T00:21:13.360Z,96134.53
2023-03-08T00:23:41.869Z,96127.00
2023-03-08T00:26:10.663Z,96142.00
2023-03-08T00:28:38.839Z,96136.22
2023-03-08T00:31:09.354Z,96143.78
2023-03-08T00:33:37.898Z,96138.53
2023-03-08T00:36:08.075Z,96144.44
2023-03-08T00:38:38.293Z,96128.03
2023-03-08T00:41:06.725Z,96132.22
2023-03-08T00:43:35.142Z,96136.44
2023-03-08T00:46:03.362Z,96033.50
2023-03-08T00:48:31.665Z,96118.44
2023-03-08T00:50:59.949Z,96000.13
2023-03-08T00:53:28.233Z,96123.31
2023-03-08T00:55:59.247Z,96119.88
2023-03-08T00:58:29.128Z,96000.06
2023-03-08T01:00:57.527Z,96127.47
2023-03-08T01:03:26.709Z,95893.84
2023-03-08T01:05:56.655Z,96133.06
2023-03-08T01:08:26.455Z,96137.25
2023-03-08T01:10:57.681Z,96136.69
2023-03-08T01:13:29.718Z,96133.97
2023-03-08T01:15:58.695Z,96138.53
2023-03-08T01:18:27.582Z,96124.03
2023-03-08T01:21:00.802Z,96142.47
2023-03-08T01:23:29.129Z,96162.56
2023-03-08T01:26:00.939Z,96163.56
2023-03-08T01:28:31.254Z,96154.91
2023-03-08T01:31:03.545Z,96157.47
2023-03-08T01:33:31.883Z,96159.22
2023-03-08T01:36:00.081Z,96159.38
2023-03-08T01:38:28.281Z,96167.16
2023-03-08T01:40:59.728Z,96180.06
2023-03-08T01:43:29.777Z,96185.25
2023-03-08T01:46:34.668Z,96184.16
2023-03-08T01:49:07.612Z,96156.97
2023-03-08T01:51:41.048Z,96187.50
2023-03-08T01:54:13.860Z,96191.78
2023-03-08T01:56:44.069Z,96059.34
2023-03-08T01:59:13.033Z,96194.19
2023-03-08T02:01:42.882Z,96178.09
2023-03-08T02:04:12.471Z,96173.69
2023-03-08T02:06:40.899Z,96197.16
2023-03-08T02:09:09.094Z,96194.78
2023-03-08T02:11:39.983Z,96195.06
2023-03-08T02:14:08.317Z,96180.06
2023-03-08T02:16:36.515Z,96204.81
2023-03-08T02:19:10.857Z,96211.63
2023-03-08T02:21:39.052Z,96215.03
2023-03-08T02:24:19.599Z,96212.31
2023-03-08T02:26:48.237Z,96211.47
2023-03-08T02:29:16.436Z,96203.66
2023-03-08T02:31:44.595Z,96158.53
2023-03-08T02:34:12.804Z,96214.78
2023-03-08T02:36:40.946Z,96212.22
2023-03-08T02:39:10.530Z,96197.81
2023-03-08T02:41:38.726Z,96226.72
2023-03-08T02:44:06.917Z,96225.00
2023-03-08T02:46:36.142Z,96224.09
2023-03-08T02:49:04.372Z,96219.81
2023-03-08T02:51:32.445Z,96222.06
2023-03-08T02:54:00.626Z,96080.50
2023-03-08T02:56:30.186Z,96226.53
2023-03-08T02:58:58.359Z,96233.59
2023-03-08T03:01:26.949Z,96226.16
2023-03-08T03:03:56.103Z,96237.56
2023-03-08T03:06:24.465Z,96234.94
2023-03-08T03:08:53.317Z,96240.13
2023-03-08T03:11:23.329Z,96235.94
2023-03-08T03:13:57.749Z,96236.81
2023-03-08T03:16:26.741Z,96235.94
2023-03-08T03:18:55.622Z,96248.88
2023-03-08T03:21:24.909Z,96247.06
2023-03-08T03:23:52.983Z,96253.88
2023-03-08T03:26:23.412Z,96209.69
2023-03-08T03:28:52.590Z,96081.13
2023-03-08T03:31:23.859Z,96262.34
2023-03-08T03:33:52.920Z,96263.19
2023-03-08T03:36:22.896Z,96268.47
2023-03-08T03:38:51.354Z,96252.94
2023-03-08T03:41:22.187Z,96177.13
2023-03-08T03:43:51.579Z,96253.72
2023-03-08T03:46:23.359Z,96258.00
2023-03-08T03:48:51.846Z,96258.00
2023-03-08T03:51:21.740Z,96264.22
2023-03-08T03:53:50.607Z,96263.47
2023-03-08T03:56:20.429Z,96218.78
2023-03-08T03:58:48.694Z,96281.69
2023-03-08T04:01:19.011Z,96276.22
2023-03-08T04:03:48.928Z,96188.59
2023-03-08T04:06:19.220Z,96296.84
2023-03-08T04:08:47.812Z,96291.66
2023-03-08T04:11:18.365Z,96296.72
2023-03-08T04:13:46.866Z,96297.59
2023-03-08T04:16:17.266Z,96296.78
2023-03-08T04:18:46.224Z,96293.47
2023-03-08T04:21:16.056Z,96294.47
2023-03-08T04:23:44.229Z,96251.88
2023-03-08T04:26:13.444Z,96257.22
2023-03-08T04:28:41.979Z,96295.78
2023-03-08T04:31:15.233Z,96305.31
2023-03-08T04:33:43.509Z,96297.53
2023-03-08T04:36:11.875Z,96292.69
2023-03-08T04:38:41.746Z,96315.63
2023-03-08T04:41:12.249Z,96253.59
2023-03-08T04:43:41.270Z,96317.31
2023-03-08T04:46:09.974Z,96318.31
2023-03-08T04:48:38.182Z,96321.56
2023-03-08T04:51:08.489Z,96319.03
2023-03-08T04:53:39.312Z,96320.19
2023-03-08T04:56:10.468Z,96250.53
2023-03-08T04:58:40.027Z,96316.00
2023-03-08T05:01:13.117Z,96331.44
2023-03-08T05:03:41.408Z,96334.88
2023-03-08T05:06:09.986Z,96326.38
2023-03-08T05:08:38.540Z,96327.16
2023-03-08T05:11:08.200Z,96331.53
2023-03-08T05:13:38.668Z,96330.47
2023-03-08T05:16:09.056Z,96328.78
2023-03-08T05:18:37.573Z,96333.19
2023-03-08T05:21:08.035Z,96318.69
2023-03-08T05:23:36.350Z,96311.72
2023-03-08T05:26:06.759Z,96335.66
2023-03-08T05:28:38.327Z,96337.44
2023-03-08T05:31:08.299Z,96341.69
2023-03-08T05:33:37.276Z,96336.63
2023-03-08T05:36:07.102Z,96349.53
2023-03-08T05:38:35.728Z,96346.94
2023-03-08T05:41:05.265Z,96139.00
2023-03-08T05:43:35.517Z,96352.91
2023-03-08T05:46:06.141Z,96372.56
2023-03-08T05:48:35.993Z,96378.53
2023-03-08T05:51:07.093Z,96374.94
2023-03-08T05:53:35.689Z,96375.13
2023-03-08T05:56:10.144Z,96374.59
2023-03-08T05:58:42.929Z,96304.13
2023-03-08T06:01:13.875Z,96374.78
2023-03-08T06:03:42.266Z,96378.28
2023-03-08T06:06:10.447Z,96309.94
2023-03-08T06:08:38.746Z,96383.25
2023-03-08T06:11:07.758Z,96378.81
2023-03-08T06:13:36.891Z,96301.00
2023-03-08T06:16:08.352Z,96387.00
2023-03-08T06:18:38.133Z,96341.78
2023-03-08T06:21:08.095Z,96387.78
2023-03-08T06:23:37.479Z,96229.16
2023-03-08T06:26:07.084Z,96395.31
2023-03-08T06:28:35.744Z,96335.28
2023-03-08T06:31:04.398Z,96391.44
2023-03-08T06:33:35.122Z,96386.00
2023-03-08T06:36:05.170Z,96398.59
2023-03-08T06:38:35.780Z,96366.03
2023-03-08T06:41:05.081Z,96310.56
2023-03-08T06:43:33.460Z,96385.94
2023-03-08T06:46:05.471Z,96383.75
2023-03-08T06:48:35.211Z,96375.63
2023-03-08T06:51:03.679Z,96403.50
2023-03-08T06:53:31.974Z,96389.03
2023-03-08T06:56:03.143Z,96415.53
2023-03-08T06:58:31.527Z,96421.41
2023-03-08T07:01:00.471Z,96427.91
2023-03-08T07:03:29.257Z,96421.69
2023-03-08T07:06:01.434Z,96374.94
2023-03-08T07:08:30.029Z,96400.63
2023-03-08T07:10:58.561Z,96427.97
2023-03-08T07:13:26.743Z,96422.97
2023-03-08T07:15:54.936Z,96419.06
2023-03-08T07:18:23.155Z,96410.94
2023-03-08T07:20:53.677Z,96404.72
2023-03-08T07:23:23.312Z,96426.63
2023-03-08T07:25:51.576Z,96423.06
2023-03-08T07:28:19.792Z,96426.56
2023-03-08T07:30:49.411Z,96423.31
2023-03-08T07:33:18.047Z,96333.28
2023-03-08T07:35:46.347Z,96433.13
2023-03-08T07:38:14.879Z,96425.28
2023-03-08T07:40:44.756Z,96422.50
2023-03-08T07:43:13.274Z,96423.06
2023-03-08T07:45:41.814Z,96417.56
2023-03-08T07:48:10.192Z,96423.06
2023-03-08T07:50:38.505Z,96420.53
2023-03-08T07:53:07.957Z,96430.09
2023-03-08T07:55:36.224Z,96391.91
2023-03-08T07:58:05.853Z,96420.16
2023-03-08T08:00:34.063Z,96395.69
2023-03-08T08:03:02.295Z,96372.38
2023-03-08T08:05:30.646Z,96394.16
2023-03-08T08:07:58.877Z,96404.97
2023-03-08T08:10:27.163Z,96396.41
2023-03-08T08:12:55.305Z,96402.88
2023-03-08T08:15:25.924Z,96391.31
2023-03-08T08:17:54.223Z,96394.69
2023-03-08T08:20:22.465Z,96397.91
2023-03-08T08:22:53.452Z,96247.41
2023-03-08T08:25:21.937Z,96374.22
2023-03-08T08:27:51.453Z,96394.97
2023-03-08T08:30:20.182Z,96280.66
2023-03-08T08:32:49.859Z,96380.06
2023-03-08T08:35:18.142Z,96385.38
2023-03-08T08:37:46.271Z,96378.50
2023-03-08T08:40:14.761Z,96367.25
2023-03-08T08:42:43.010Z,96368.72
2023-03-08T08:45:12.283Z,96366.09
2023-03-08T08:47:40.386Z,96365.66
2023-03-08T08:50:13.880Z,96358.91
2023-03-08T08:52:42.367Z,96363.44
2023-03-08T08:55:11.331Z,96368.66
2023-03-08T08:57:39.421Z,96373.75
2023-03-08T09:00:10.345Z,96359.91
2023-03-08T09:02:38.539Z,96376.53
2023-03-08T09:05:07.342Z,96361.75
2023-03-08T09:07:38.967Z,96377.47
2023-03-08T09:10:09.033Z,96372.84
2023-03-08T09:12:37.244Z,96290.72
2023-03-08T09:15:06.335Z,96274.78
2023-03-08T09:17:34.481Z,96221.25
2023-03-08T09:20:02.645Z,96355.34
2023-03-08T09:22:30.868Z,96381.81
2023-03-08T09:25:00.440Z,96376.34
2023-03-08T09:27:28.577Z,96377.56
2023-03-08T09:29:56.720Z,96360.06
2023-03-08T09:32:25.235Z,96375.97
2023-03-08T09:34:53.997Z,96349.69
2023-03-08T09:37:22.367Z,96360.38
2023-03-08T09:39:52.626Z,96363.41
2023-03-08T09:42:27.552Z,96360.44
2023-03-08T09:45:08.124Z,96358.19
2023-03-08T09:47:46.652Z,96361.59
2023-03-08T09:50:35.147Z,96366.91
2023-03-08T09:53:10.631Z,96364.47
2023-03-08T09:55:46.115Z,96370.63
2023-03-08T09:58:23.770Z,96369.63
2023-03-08T10:00:52.398Z,96328.75
2023-03-08T10:03:44.944Z,96372.16
2023-03-08T10:06:19.667Z,96375.50
2023-03-08T10:08:54.686Z,96355.00
2023-03-08T10:11:29.205Z,96365.84
2023-03-08T10:14:04.341Z,96357.22
2023-03-08T10:16:36.731Z,96373.22
2023-03-08T10:19:11.352Z,96328.81
2023-03-08T10:21:42.035Z,96344.16
2023-03-08T10:24:17.712Z,96357.06
2023-03-08T10:26:46.552Z,96348.53
2023-03-08T10:29:16.198Z,96345.78
2023-03-08T10:31:47.258Z,96336.06
2023-03-08T10:34:17.495Z,96235.03
2023-03-08T10:36:51.038Z,96309.16
2023-03-08T10:39:20.047Z,96261.03
2023-03-08T10:41:51.625Z,96300.75
2023-03-08T10:44:37.031Z,96272.22
2023-03-08T10:47:18.537Z,96285.06
2023-03-08T10:49:47.701Z,96286.28
2023-03-08T10:52:24.846Z,96279.72
2023-03-08T10:55:02.471Z,96273.09
2023-03-08T10:57:31.181Z,96271.13
2023-03-08T11:00:07.757Z,96260.66
2023-03-08T11:02:35.966Z,96264.66
2023-03-08T11:05:04.264Z,96262.25
2023-03-08T11:07:34.929Z,96164.69
2023-03-08T11:10:17.068Z,96241.41
2023-03-08T11:12:46.024Z,96212.75
2023-03-08T11:15:17.325Z,96238.78
2023-03-08T11:17:54.948Z,96226.97
2023-03-08T11:20:28.858Z,96230.69
2023-03-08T11:23:13.925Z,96227.63
2023-03-08T11:25:47.443Z,96104.56
2023-03-08T11:28:34.874Z,96202.84
2023-03-08T11:31:15.933Z,96215.44
2023-03-08T11:34:18.509Z,96199.44
2023-03-08T11:36:53.934Z,96200.34
2023-03-08T11:39:28.496Z,96156.94
2023-03-08T11:42:04.488Z,96185.56
2023-03-08T11:44:58.848Z,96159.75
2023-03-08T11:48:17.386Z,96125.66
2023-03-08T11:50:52.854Z,96144.69
2023-03-08T11:53:30.795Z,96153.00
2023-03-08T11:56:27.107Z,96125.66
2023-03-08T11:59:00.013Z,96112.03
2023-03-08T12:01:32.050Z,96055.88
2023-03-08T12:04:08.715Z,96145.44
2023-03-08T12:06:41.415Z,96126.06
2023-03-08T12:09:17.306Z,96055.84
2023-03-08T12:11:49.075Z,96117.66
2023-03-08T12:14:22.437Z,96117.50
2023-03-08T12:16:57.716Z,96104.00
2023-03-08T12:19:35.695Z,96105.97
2023-03-08T12:22:15.880Z,96107.81
2023-03-08T12:24:51.951Z,96100.59
2023-03-08T12:27:23.248Z,96104.91
2023-03-08T12:29:55.136Z,96047.13
2023-03-08T12:32:24.550Z,96091.56
2023-03-08T12:35:05.735Z,95953.50
2023-03-08T12:37:34.270Z,96066.28
2023-03-08T12:40:07.594Z,96054.56
2023-03-08T12:42:38.656Z,96059.56
2023-03-08T12:45:28.114Z,96024.00
2023-03-08T12:48:00.064Z,96044.78
2023-03-08T12:50:30.651Z,96032.88
2023-03-08T12:52:59.236Z,96025.19
2023-03-08T12:55:31.941Z,95917.13
2023-03-08T12:58:03.244Z,96010.75
2023-03-08T13:00:33.337Z,96024.28
2023-03-08T13:03:05.727Z,95987.97
2023-03-08T13:05:37.660Z,95996.09
2023-03-08T13:08:24.237Z,96006.56
2023-03-08T13:11:07.598Z,96006.81
2023-03-08T13:13:50.898Z,95994.81
2023-03-08T13:16:32.410Z,95870.41
2023-03-08T13:19:22.293Z,95983.88
2023-03-08T13:21:59.184Z,95984.84
2023-03-08T13:24:40.174Z,95989.06
2023-03-08T13:27:26.468Z,95754.16
2023-03-08T13:29:55.231Z,95962.19
2023-03-08T13:32:25.514Z,95982.41
2023-03-08T13:35:00.663Z,95976.66
2023-03-08T13:37:32.287Z,95971.03
2023-03-08T13:40:01.688Z,95967.50
2023-03-08T13:42:30.665Z,95939.84
2023-03-08T13:45:09.712Z,95958.38
2023-03-08T13:47:41.064Z,95942.91
2023-03-08T13:50:18.116Z,95913.22
2023-03-08T13:52:48.582Z,95922.94
2023-03-08T13:55:21.688Z,95944.19
2023-03-08T13:57:52.644Z,95936.88
2023-03-08T14:00:30.416Z,95946.03
2023-03-08T14:02:59.320Z,95940.22
2023-03-08T14:05:29.053Z,95935.09
2023-03-08T14:08:01.882Z,95925.84
2023-03-08T14:10:38.007Z,95922.56
2023-03-08T14:13:08.677Z,95925.06
2023-03-08T14:15:40.917Z,95866.38
2023-03-08T14:18:22.242Z,95924.25
2023-03-08T14:21:01.968Z,95914.47
2023-03-08T14:23:33.304Z,95912.25
2023-03-08T14:26:01.445Z,95915.00
2023-03-08T14:28:40.898Z,95908.75
2023-03-08T14:31:29.361Z,95888.38
2023-03-08T14:33:59.955Z,95916.13
2023-03-08T14:36:29.977Z,95857.50
2023-03-08T14:39:01.298Z,95874.34
2023-03-08T14:41:35.452Z,95812.44
2023-03-08T14:44:04.920Z,95870.97
2023-03-08T14:46:33.383Z,95854.19
2023-03-08T14:49:04.555Z,95853.44
2023-03-08T14:51:40.673Z,95799.91
2023-03-08T14:54:24.295Z,95816.00
2023-03-08T14:56:52.460Z,95825.00
2023-03-08T14:59:27.725Z,95806.66
2023-03-08T15:01:56.820Z,95852.28
2023-03-08T15:04:26.890Z,95862.94
2023-03-08T15:06:56.214Z,95862.31
2023-03-08T15:09:27.015Z,95871.25
2023-03-08T15:11:58.509Z,95859.22
2023-03-08T15:14:28.191Z,95858.47
2023-03-08T15:16:56.626Z,95824.53
2023-03-08T15:19:24.894Z,95857.00
2023-03-08T15:21:53.148Z,95808.91
2023-03-08T15:24:21.432Z,95734.41
2023-03-08T15:26:52.824Z,95864.31
2023-03-08T15:29:27.749Z,95863.84
2023-03-08T15:31:56.542Z,95714.88
2023-03-08T15:34:27.906Z,95853.03
2023-03-08T15:36:56.982Z,95845.94
2023-03-08T15:39:25.513Z,95859.34
2023-03-08T15:41:55.191Z,95774.88
2023-03-08T15:44:24.824Z,95845.38
2023-03-08T15:46:53.190Z,95856.22
2023-03-08T15:49:21.378Z,95856.94
2023-03-08T15:51:50.579Z,95849.38
2023-03-08T15:54:18.869Z,95855.06
2023-03-08T15:56:47.067Z,95850.94
2023-03-08T15:59:16.633Z,95835.47
2023-03-08T16:01:44.867Z,95833.50
2023-03-08T16:04:13.068Z,95847.59
2023-03-08T16:06:43.629Z,95674.78
2023-03-08T16:09:11.845Z,95853.59
2023-03-08T16:11:40.180Z,95863.78
2023-03-08T16:14:08.402Z,95820.38
2023-03-08T16:16:45.337Z,95874.72
2023-03-08T16:19:14.635Z,95892.38
2023-03-08T16:21:42.737Z,95851.38
2023-03-08T16:24:12.500Z,95883.09
2023-03-08T16:26:40.650Z,95876.09
2023-03-08T16:29:09.820Z,95871.38
2023-03-08T16:31:39.445Z,95842.91
2023-03-08T16:34:07.883Z,95829.63
2023-03-08T16:36:36.163Z,95858.03
2023-03-08T16:39:05.757Z,95862.84
2023-03-08T16:41:35.126Z,95851.78
2023-03-08T16:44:03.348Z,95865.00
2023-03-08T16:46:31.534Z,95886.56
2023-03-08T16:49:01.320Z,95878.78
2023-03-08T16:51:30.712Z,95871.69
2023-03-08T16:53:58.988Z,95880.97
2023-03-08T16:56:28.983Z,95852.66
2023-03-08T16:58:58.934Z,95869.78
2023-03-08T17:01:27.481Z,95850.31
2023-03-08T17:03:56.548Z,95865.16
2023-03-08T17:06:28.442Z,95877.44
2023-03-08T17:08:56.702Z,95876.94
2023-03-08T17:11:27.623Z,95871.41
2023-03-08T17:13:58.559Z,95785.66
2023-03-08T17:16:28.258Z,95866.25
2023-03-08T17:18:57.377Z,95843.03
2023-03-08T17:21:27.886Z,95883.34
2023-03-08T17:23:56.463Z,95865.25
2023-03-08T17:26:25.125Z,95886.72
2023-03-08T17:28:54.818Z,95900.28
2023-03-08T17:31:24.845Z,95780.00
2023-03-08T17:33:53.476Z,95884.09
2023-03-08T17:36:22.230Z,95936.31
2023-03-08T17:38:53.820Z,95929.34
2023-03-08T17:41:22.674Z,95912.94
2023-03-08T17:43:51.133Z,95910.47
2023-03-08T17:46:21.435Z,95886.63
2023-03-08T17:48:50.680Z,95900.56
2023-03-08T17:51:21.404Z,95902.16
2023-03-08T17:53:49.880Z,95901.41
2023-03-08T17:56:21.510Z,95862.56
2023-03-08T17:58:50.558Z,95906.28
2023-03-08T18:01:20.617Z,95779.75
2023-03-08T18:03:49.360Z,95917.75
2023-03-08T18:06:28.949Z,95904.72
2023-03-08T18:08:58.145Z,95900.88
2023-03-08T18:11:28.613Z,95906.22
2023-03-08T18:13:57.555Z,95901.06
2023-03-08T18:16:25.807Z,95841.91
2023-03-08T18:18:54.423Z,95872.91
2023-03-08T18:21:23.084Z,95895.50
2023-03-08T18:23:54.123Z,95882.94
2023-03-08T18:26:22.736Z,95892.06
2023-03-08T18:28:52.810Z,95744.00
2023-03-08T18:31:23.499Z,95921.81
2023-03-08T18:33:54.654Z,95905.47
2023-03-08T18:36:23.949Z,95921.91
2023-03-08T18:38:52.245Z,95913.03
2023-03-08T18:41:23.518Z,95900.78
2023-03-08T18:43:54.701Z,95900.41
2023-03-08T18:46:28.690Z,95826.94
2023-03-08T18:48:57.801Z,95914.03
2023-03-08T18:51:26.301Z,95919.00
2023-03-08T18:53:55.462Z,95862.75
2023-03-08T18:56:26.004Z,95900.25
2023-03-08T18:58:56.358Z,95913.38
2023-03-08T19:01:25.369Z,95910.97
2023-03-08T19:03:53.855Z,95907.41
2023-03-08T19:06:21.970Z,95918.31
2023-03-08T19:08:50.104Z,95888.09
2023-03-08T19:11:20.365Z,95912.31
2023-03-08T19:13:49.441Z,95914.13
2023-03-08T19:16:22.232Z,95905.25
2023-03-08T19:18:53.727Z,95760.00
2023-03-08T19:21:23.715Z,95892.06
2023-03-08T19:23:52.759Z,95909.69
2023-03-08T19:26:38.127Z,95912.50
2023-03-08T19:29:08.854Z,95899.22
2023-03-08T19:31:40.505Z,95861.06
2023-03-08T19:34:09.163Z,95842.22
2023-03-08T19:36:38.344Z,95844.91
2023-03-08T19:39:09.230Z,95880.03
2023-03-08T19:41:37.666Z,95884.88
2023-03-08T19:44:07.250Z,95892.78
2023-03-08T19:46:35.972Z,95880.28
2023-03-08T19:49:07.965Z,95802.44
2023-03-08T19:51:37.109Z,95879.44
2023-03-08T19:54:07.213Z,95878.63
2023-03-08T19:56:36.263Z,95882.09
2023-03-08T19:59:04.865Z,95874.34
2023-03-08T20:01:33.411Z,95896.19
2023-03-08T20:04:01.669Z,95871.25
2023-03-08T20:06:33.066Z,95884.66
2023-03-08T20:09:01.954Z,95875.09
2023-03-08T20:11:30.778Z,95872.03
2023-03-08T20:13:59.143Z,95883.31
2023-03-08T20:16:28.176Z,95911.97
2023-03-08T20:18:57.566Z,95912.88
2023-03-08T20:21:28.121Z,95891.81
2023-03-08T20:23:59.752Z,95928.88
2023-03-08T20:26:31.226Z,95882.72
2023-03-08T20:29:00.227Z,95913.28
2023-03-08T20:31:30.135Z,95950.41
2023-03-08T20:33:58.875Z,95889.38
2023-03-08T20:36:27.333Z,95917.44
2023-03-08T20:38:56.230Z,95905.38
2023-03-08T20:41:26.184Z,95923.28
2023-03-08T20:43:55.931Z,95924.16
2023-03-08T20:46:25.970Z,95865.25
2023-03-08T20:48:54.336Z,95901.53
2023-03-08T20:51:24.042Z,95897.78
2023-03-08T20:53:54.672Z,95890.53
2023-03-08T20:56:26.095Z,95895.47
2023-03-08T20:58:55.378Z,95898.38
2023-03-08T21:01:25.829Z,95897.63
2023-03-08T21:03:54.100Z,95891.16
2023-03-08T21:06:23.914Z,95872.41
2023-03-08T21:08:52.699Z,95877.94
2023-03-08T21:11:21.744Z,95893.09
2023-03-08T21:13:52.584Z,95837.47
2023-03-08T21:16:22.685Z,95895.38
2023-03-08T21:18:51.775Z,95887.75
2023-03-08T21:21:24.111Z,95869.25
2023-03-08T21:23:54.449Z,95875.47
2023-03-08T21:26:24.438Z,95849.44
2023-03-08T21:28:55.029Z,95887.03
2023-03-08T21:31:23.946Z,95868.00
2023-03-08T21:33:53.640Z,95826.78
2023-03-08T21:36:22.083Z,95880.41
2023-03-08T21:38:53.436Z,95718.94
2023-03-08T21:41:23.321Z,95885.47
2023-03-08T21:43:51.939Z,95879.06
2023-03-08T21:46:21.910Z,95728.53
2023-03-08T21:48:50.747Z,95867.81
2023-03-08T21:51:19.129Z,95879.88
2023-03-08T21:53:47.472Z,95884.66
2023-03-08T21:56:18.327Z,95886.56
2023-03-08T21:58:46.885Z,95877.28
2023-03-08T22:01:24.414Z,95877.19
2023-03-08T22:03:53.391Z,95875.31
2023-03-08T22:06:21.872Z,95750.22
2023-03-08T22:08:50.942Z,95870.72
2023-03-08T22:11:20.030Z,95874.81
2023-03-08T22:13:51.383Z,95854.63
2023-03-08T22:16:22.019Z,95869.53
2023-03-08T22:18:53.782Z,95824.06
2023-03-08T22:21:22.605Z,95864.38
2023-03-08T22:23:51.885Z,95875.06
2023-03-08T22:26:21.099Z,95883.97
2023-03-08T22:28:49.778Z,95880.31
2023-03-08T22:31:19.815Z,95878.25
2023-03-08T22:33:49.666Z,95884.97
2023-03-08T22:36:19.689Z,95880.66
2023-03-08T22:38:47.966Z,95876.00
2023-03-08T22:41:18.146Z,95865.03
2023-03-08T22:43:47.067Z,95844.50
2023-03-08T22:46:17.664Z,95873.75
2023-03-08T22:48:46.713Z,95810.31
2023-03-08T22:51:18.064Z,95855.28
2023-03-08T22:53:46.268Z,95853.50
2023-03-08T22:56:22.732Z,95845.41
2023-03-08T22:58:51.848Z,95842.88
2023-03-08T23:01:22.902Z,95816.06
2023-03-08T23:03:55.348Z,95805.59
2023-03-08T23:06:28.218Z,95829.84
2023-03-08T23:08:56.820Z,95841.81
2023-03-08T23:11:25.162Z,95827.75
2023-03-08T23:13:53.748Z,95719.91
2023-03-08T23:16:22.477Z,95845.34
2023-03-08T23:18:52.355Z,95823.53
2023-03-08T23:21:24.179Z,95840.59
2023-03-08T23:23:53.799Z,95837.75
2023-03-08T23:26:26.996Z,95813.94
2023-03-08T23:28:57.244Z,95811.41
2023-03-08T23:31:27.237Z,95832.13
2023-03-08T23:33:56.982Z,95813.28
2023-03-08T23:36:26.992Z,95838.31
2023-03-08T23:38:57.855Z,95841.47
2023-03-08T23:41:26.876Z,95840.97
2023-03-08T23:43:56.225Z,95846.22
2023-03-08T23:46:25.287Z,95841.66
2023-03-08T23:48:57.821Z,95669.50
2023-03-08T23:51:27.897Z,95815.28
2023-03-08T23:54:00.940Z,95822.00
2023-03-08T23:56:37.689Z,95777.16
2023-03-08T23:59:08.583Z,95701.88
